createdAt,value
2022-12-25T00:12:50.129Z,4.89
2022-12-25T00:32:50.197Z,4.59
2022-12-25T00:52:50.055Z,4.49
2022-12-25T01:12:50.077Z,4.39
2022-12-25T01:32:50.084Z,4.56
2022-12-25T01:52:50.113Z,4.78
2022-12-25T02:12:50.136Z,4.75
2022-12-25T02:32:50.117Z,4.85
2022-12-25T02:52:50.041Z,4.98
2022-12-25T03:12:50.066Z,5.13
2022-12-25T03:32:50.067Z,5.20
2022-12-25T03:52:50.086Z,5.33
2022-12-25T04:12:50.100Z,5.37
2022-12-25T04:32:50.040Z,5.33
2022-12-25T04:52:50.072Z,5.30
2022-12-25T05:12:50.069Z,5.28
2022-12-25T05:32:50.089Z,5.29
2022-12-25T05:52:50.102Z,5.32
2022-12-25T06:12:50.015Z,5.33
2022-12-25T06:32:50.021Z,5.34
2022-12-25T06:52:50.047Z,5.29
2022-12-25T07:12:50.057Z,5.48
2022-12-25T07:32:50.069Z,5.71
2022-12-25T07:52:50.033Z,5.92
2022-12-25T08:12:50.020Z,6.13
2022-12-25T08:32:50.097Z,6.26
2022-12-25T08:52:50.161Z,6.45
2022-12-25T09:12:50.066Z,6.37
2022-12-25T09:32:50.017Z,6.32
2022-12-25T09:52:49.975Z,6.88
2022-12-25T10:12:50.007Z,6.89
2022-12-25T10:32:50.084Z,7.66
2022-12-25T10:52:50.049Z,8.42
2022-12-25T11:12:49.943Z,8.95
2022-12-25T11:32:50.027Z,9.38
2022-12-25T11:52:49.968Z,9.95
2022-12-25T12:12:49.953Z,9.76
2022-12-25T12:32:50.016Z,9.96
2022-12-25T12:52:49.933Z,9.98
2022-12-25T13:12:49.978Z,10.48
2022-12-25T13:32:49.890Z,11.21
2022-12-25T13:52:49.884Z,13.29
2022-12-25T14:12:49.836Z,12.37
2022-12-25T14:32:49.833Z,10.67
2022-12-25T14:52:49.915Z,9.54
2022-12-25T15:12:49.771Z,8.47
2022-12-25T15:32:49.805Z,7.63
2022-12-25T15:52:49.741Z,6.89
2022-12-25T16:12:49.792Z,6.27
2022-12-25T16:32:49.755Z,5.87
2022-12-25T16:52:49.781Z,5.54
2022-12-25T17:12:49.823Z,5.14
2022-12-25T17:32:49.701Z,4.72
2022-12-25T17:52:49.708Z,4.45
2022-12-25T18:12:49.729Z,4.19
2022-12-25T18:32:49.740Z,3.92
2022-12-25T18:52:49.777Z,3.66
2022-12-25T19:12:49.822Z,3.55
2022-12-25T19:32:49.684Z,3.40
2022-12-25T19:52:49.707Z,3.22
2022-12-25T20:12:49.772Z,3.33
2022-12-25T20:32:49.721Z,3.77
2022-12-25T20:52:49.798Z,4.86
2022-12-25T21:12:49.777Z,5.34
2022-12-25T21:32:49.784Z,4.95
2022-12-25T21:52:49.672Z,5.50
2022-12-25T22:12:49.757Z,5.75
2022-12-25T22:32:49.717Z,6.26
2022-12-25T22:52:49.766Z,6.21
2022-12-25T23:12:49.728Z,6.23
2022-12-25T23:32:49.649Z,5.33
2022-12-25T23:52:49.659Z,4.95
